createdAt,value
2022-08-20T00:00:42.638Z,94675.44
2022-08-20T00:03:15.185Z,94676.50
2022-08-20T00:05:49.592Z,94673.31
2022-08-20T00:08:17.923Z,94648.38
2022-08-20T00:10:46.246Z,94661.13
2022-08-20T00:13:20.261Z,94669.31
2022-08-20T00:15:48.106Z,94676.72
2022-08-20T00:18:15.414Z,94672.75
2022-08-20T00:20:47.030Z,94676.44
2022-08-20T00:23:14.763Z,94666.88
2022-08-20T00:25:43.485Z,94662.91
2022-08-20T00:28:10.939Z,94667.44
2022-08-20T00:30:39.828Z,94667.41
2022-08-20T00:33:10.537Z,94665.78
2022-08-20T00:35:43.109Z,94663.09
2022-08-20T00:38:10.426Z,94665.75
2022-08-20T00:40:56.595Z,94666.31
2022-08-20T00:43:30.965Z,94667.06
2022-08-20T00:46:00.582Z,94665.94
2022-08-20T00:48:32.138Z,94662.47
2022-08-20T00:51:07.646Z,94665.31
2022-08-20T00:53:36.083Z,94665.19
2022-08-20T00:56:05.348Z,94662.00
2022-08-20T00:58:33.205Z,94663.25
2022-08-20T01:01:00.503Z,94654.94
2022-08-20T01:03:27.571Z,94650.34
2022-08-20T01:05:54.515Z,94647.59
2022-08-20T01:08:24.804Z,94647.53
2022-08-20T01:10:54.074Z,94634.53
2022-08-20T01:13:23.821Z,94638.81
2022-08-20T01:15:54.895Z,94635.69
2022-08-20T01:18:25.226Z,94633.13
2022-08-20T01:20:56.843Z,94636.63
2022-08-20T01:23:32.434Z,94642.97
2022-08-20T01:26:09.090Z,94638.22
2022-08-20T01:28:50.738Z,94634.53
2022-08-20T01:31:21.525Z,94639.31
2022-08-20T01:33:51.023Z,94639.06
2022-08-20T01:36:23.467Z,94630.09
2022-08-20T01:38:54.036Z,94629.84
2022-08-20T01:42:13.172Z,94628.81
2022-08-20T01:44:43.082Z,94624.00
2022-08-20T01:47:13.018Z,94621.09
2022-08-20T01:49:45.515Z,94613.41
2022-08-20T01:52:22.956Z,94615.53
2022-08-20T01:54:49.917Z,94617.63
2022-08-20T01:57:19.210Z,94625.56
2022-08-20T01:59:48.004Z,94620.78
2022-08-20T02:02:15.014Z,94624.72
2022-08-20T02:04:42.629Z,94620.72
2022-08-20T02:07:15.975Z,94618.03
2022-08-20T02:09:43.888Z,94624.41
2022-08-20T02:12:14.463Z,94616.97
2022-08-20T02:14:44.125Z,94622.75
2022-08-20T02:17:12.585Z,94621.16
2022-08-20T02:19:44.472Z,94619.72
2022-08-20T02:22:23.675Z,94616.41
2022-08-20T02:24:51.616Z,94606.09
2022-08-20T02:27:19.218Z,94608.97
2022-08-20T02:29:46.932Z,94614.34
2022-08-20T02:32:24.137Z,94625.47
2022-08-20T02:35:00.026Z,94619.56
2022-08-20T02:37:28.382Z,94629.81
2022-08-20T02:39:55.360Z,94630.06
2022-08-20T02:42:22.402Z,94621.63
2022-08-20T02:44:49.360Z,94611.09
2022-08-20T02:47:17.342Z,94622.19
2022-08-20T02:49:44.221Z,94634.56
2022-08-20T02:52:11.266Z,94626.13
2022-08-20T02:54:38.238Z,94638.28
2022-08-20T02:57:05.451Z,94640.31
2022-08-20T02:59:32.435Z,94635.00
2022-08-20T03:02:00.516Z,94649.78
2022-08-20T03:04:31.200Z,94638.44
2022-08-20T03:06:59.397Z,94645.53
2022-08-20T03:09:26.657Z,94619.72
2022-08-20T03:11:54.545Z,94647.03
2022-08-20T03:14:21.679Z,94635.94
2022-08-20T03:16:48.738Z,94626.91
2022-08-20T03:19:15.910Z,94636.41
2022-08-20T03:21:43.005Z,94633.78
2022-08-20T03:24:10.051Z,94644.88
2022-08-20T03:26:37.051Z,94636.41
2022-08-20T03:29:04.073Z,94646.72
2022-08-20T03:31:31.226Z,94652.22
2022-08-20T03:33:58.155Z,94652.69
2022-08-20T03:36:28.137Z,94645.59
2022-08-20T03:39:01.331Z,94645.25
2022-08-20T03:41:29.270Z,94650.72
2022-08-20T03:43:56.404Z,94649.91
2022-08-20T03:46:24.125Z,94653.00
2022-08-20T03:49:00.366Z,94651.09
2022-08-20T03:51:56.996Z,94652.84
2022-08-20T03:54:19.248Z,94656.31
2022-08-20T03:56:46.213Z,94659.41
2022-08-20T03:59:13.168Z,94659.34
2022-08-20T04:01:45.803Z,94664.03
2022-08-20T04:04:14.358Z,94670.91
2022-08-20T04:06:42.554Z,94659.81
2022-08-20T04:09:11.954Z,94653.41
2022-08-20T04:11:40.428Z,94663.25
2022-08-20T04:14:07.746Z,94655.25
2022-08-20T04:16:37.835Z,94658.91
2022-08-20T04:19:05.307Z,94665.78
2022-08-20T04:21:33.643Z,94671.84
2022-08-20T04:24:05.585Z,94669.78
2022-08-20T04:26:35.399Z,94654.28
2022-08-20T04:29:02.409Z,94674.38
2022-08-20T04:31:35.333Z,94668.06
2022-08-20T04:34:03.945Z,94675.97
2022-08-20T04:36:31.256Z,94668.97
2022-08-20T04:38:58.271Z,94671.16
2022-08-20T04:41:25.282Z,94667.56
2022-08-20T04:43:54.544Z,94665.81
2022-08-20T04:46:24.044Z,94669.81
2022-08-20T04:48:51.281Z,94680.84
2022-08-20T04:51:18.899Z,94676.72
2022-08-20T04:53:52.251Z,94675.91
2022-08-20T04:56:24.152Z,94668.91
2022-08-20T04:58:52.990Z,94672.97
2022-08-20T05:01:19.996Z,94668.84
2022-08-20T05:03:49.930Z,94667.66
2022-08-20T05:06:18.310Z,94678.81
2022-08-20T05:08:45.708Z,94674.34
2022-08-20T05:11:34.881Z,94687.50
2022-08-20T05:14:02.019Z,94677.56
2022-08-20T05:16:28.961Z,94667.53
2022-08-20T05:18:55.901Z,94670.06
2022-08-20T05:21:23.161Z,94682.91
2022-08-20T05:23:50.117Z,94666.66
2022-08-20T05:26:20.495Z,94677.22
2022-08-20T05:28:57.854Z,94670.19
2022-08-20T05:31:31.399Z,94671.38
2022-08-20T05:34:10.421Z,94663.81
2022-08-20T05:36:44.876Z,94672.13
2022-08-20T05:39:12.926Z,94659.50
2022-08-20T05:41:40.795Z,94656.44
2022-08-20T05:44:11.001Z,94656.00
2022-08-20T05:46:41.301Z,94653.41
2022-08-20T05:49:15.719Z,94671.28
2022-08-20T05:51:43.436Z,94668.75
2022-08-20T05:54:10.472Z,94672.25
2022-08-20T05:56:37.926Z,94657.81
2022-08-20T05:59:08.135Z,94661.38
2022-08-20T06:01:37.983Z,94650.34
2022-08-20T06:04:24.102Z,94637.69
2022-08-20T06:07:02.665Z,94648.41
2022-08-20T06:09:31.884Z,94650.03
2022-08-20T06:12:02.169Z,94661.75
2022-08-20T06:14:29.421Z,94661.28
2022-08-20T06:17:02.764Z,94656.31
2022-08-20T06:19:32.298Z,94655.56
2022-08-20T06:22:00.402Z,94657.72
2022-08-20T06:24:27.427Z,94655.34
2022-08-20T06:26:59.679Z,94662.00
2022-08-20T06:29:28.333Z,94660.66
2022-08-20T06:31:55.292Z,94651.41
2022-08-20T06:34:23.644Z,94651.72
2022-08-20T06:36:50.635Z,94650.94
2022-08-20T06:39:17.631Z,94642.50
2022-08-20T06:41:45.230Z,94647.84
2022-08-20T06:44:12.194Z,94637.81
2022-08-20T06:46:39.203Z,94652.91
2022-08-20T06:49:07.585Z,94643.16
2022-08-20T06:51:35.350Z,94642.06
2022-08-20T06:54:02.263Z,94637.63
2022-08-20T06:56:29.228Z,94642.66
2022-08-20T06:58:56.116Z,94641.59
2022-08-20T07:01:23.279Z,94641.59
2022-08-20T07:03:55.379Z,94635.25
2022-08-20T07:06:25.994Z,94621.44
2022-08-20T07:08:56.045Z,94627.53
2022-08-20T07:11:27.751Z,94619.28
2022-08-20T07:13:56.937Z,94620.31
2022-08-20T07:16:24.411Z,94617.88
2022-08-20T07:18:51.527Z,94617.31
2022-08-20T07:21:18.511Z,94624.69
2022-08-20T07:23:45.559Z,94621.75
2022-08-20T07:26:13.414Z,94621.50
2022-08-20T07:28:40.796Z,94616.94
2022-08-20T07:31:26.987Z,94616.88
2022-08-20T07:33:54.275Z,94614.72
2022-08-20T07:36:21.407Z,94619.13
2022-08-20T07:38:51.129Z,94614.03
2022-08-20T07:41:19.469Z,94614.50
2022-08-20T07:43:47.381Z,94617.59
2022-08-20T07:46:17.950Z,94612.78
2022-08-20T07:48:50.574Z,94612.75
2022-08-20T07:51:20.177Z,94603.56
2022-08-20T07:53:48.533Z,94611.69
2022-08-20T07:56:19.722Z,94614.31
2022-08-20T07:58:52.605Z,94618.56
2022-08-20T08:01:22.599Z,94616.53
2022-08-20T08:03:50.715Z,94619.16
2022-08-20T08:06:29.374Z,94609.44
2022-08-20T08:09:13.375Z,94608.31
2022-08-20T08:11:49.193Z,94605.91
2022-08-20T08:14:23.696Z,94602.34
2022-08-20T08:16:53.086Z,94614.25
2022-08-20T08:19:20.444Z,94601.94
2022-08-20T08:21:47.627Z,94595.19
2022-08-20T08:24:20.312Z,94591.00
2022-08-20T08:26:50.375Z,94588.72
2022-08-20T08:29:17.807Z,94577.50
2022-08-20T08:31:45.230Z,94582.22
2022-08-20T08:34:13.260Z,94584.72
2022-08-20T08:36:40.464Z,94578.13
2022-08-20T08:39:07.497Z,94578.56
2022-08-20T08:41:40.641Z,94574.41
2022-08-20T08:44:12.991Z,94577.13
2022-08-20T08:46:43.513Z,94577.13
2022-08-20T08:49:14.619Z,94578.06
2022-08-20T08:51:57.517Z,94558.78
2022-08-20T08:54:29.444Z,94565.53
2022-08-20T08:56:56.719Z,94561.69
2022-08-20T08:59:24.010Z,94567.22
2022-08-20T09:01:57.122Z,94553.66
2022-08-20T09:04:33.404Z,94559.72
2022-08-20T09:07:03.077Z,94557.75
2022-08-20T09:09:37.095Z,94551.22
2022-08-20T09:12:12.830Z,94552.81
2022-08-20T09:14:40.131Z,94555.53
2022-08-20T09:17:07.919Z,94554.16
2022-08-20T09:19:35.286Z,94563.38
2022-08-20T09:22:13.338Z,94551.09
2022-08-20T09:24:40.604Z,94560.88
2022-08-20T09:27:07.945Z,94554.94
2022-08-20T09:29:35.626Z,94549.75
2022-08-20T09:32:12.021Z,94547.84
2022-08-20T09:34:42.734Z,94554.06
2022-08-20T09:37:10.575Z,94535.31
2022-08-20T09:39:37.610Z,94536.88
2022-08-20T09:42:10.033Z,94545.47
2022-08-20T09:44:37.549Z,94539.25
2022-08-20T09:47:04.758Z,94537.91
2022-08-20T09:49:31.904Z,94530.94
2022-08-20T09:52:01.512Z,94534.34
2022-08-20T09:54:30.361Z,94531.31
2022-08-20T09:56:58.839Z,94522.38
2022-08-20T09:59:27.020Z,94517.84
2022-08-20T10:01:53.914Z,94530.69
2022-08-20T10:04:21.045Z,94518.09
2022-08-20T10:06:47.978Z,94515.88
2022-08-20T10:09:15.168Z,94504.88
2022-08-20T10:11:42.177Z,94520.41
2022-08-20T10:14:11.625Z,94510.63
2022-08-20T10:16:38.553Z,94513.66
2022-08-20T10:19:06.054Z,94517.91
2022-08-20T10:21:38.082Z,94511.47
2022-08-20T10:24:05.878Z,94513.66
2022-08-20T10:26:32.884Z,94510.66
2022-08-20T10:28:59.886Z,94513.94
2022-08-20T10:31:27.083Z,94503.38
2022-08-20T10:33:54.081Z,94512.22
2022-08-20T10:36:21.033Z,94499.63
2022-08-20T10:38:49.299Z,94493.28
2022-08-20T10:41:16.319Z,94491.06
2022-08-20T10:43:43.342Z,94487.00
2022-08-20T10:46:10.294Z,94495.00
2022-08-20T10:48:37.553Z,94493.59
2022-08-20T10:51:04.846Z,94488.25
2022-08-20T10:53:32.047Z,94487.75
2022-08-20T10:55:59.451Z,94484.13
2022-08-20T10:58:27.331Z,94488.53
2022-08-20T11:01:05.118Z,94487.56
2022-08-20T11:03:32.077Z,94479.66
2022-08-20T11:05:59.079Z,94485.19
2022-08-20T11:08:34.460Z,94482.53
2022-08-20T11:11:04.463Z,94474.81
2022-08-20T11:13:33.401Z,94471.50
2022-08-20T11:16:01.321Z,94472.94
2022-08-20T11:18:28.520Z,94459.66
2022-08-20T11:20:56.311Z,94454.00
2022-08-20T11:23:23.244Z,94453.81
2022-08-20T11:25:50.719Z,94446.16
2022-08-20T11:28:31.426Z,94446.97
2022-08-20T11:30:59.449Z,94448.19
2022-08-20T11:33:26.392Z,94439.81
2022-08-20T11:35:53.381Z,94436.75
2022-08-20T11:38:20.370Z,94422.13
2022-08-20T11:40:47.929Z,94431.78
2022-08-20T11:43:16.957Z,94424.75
2022-08-20T11:45:52.919Z,94417.03
2022-08-20T11:48:20.131Z,94421.16
2022-08-20T11:50:48.322Z,94423.84
2022-08-20T11:53:15.133Z,94415.31
2022-08-20T11:55:42.640Z,94426.50
2022-08-20T11:58:10.797Z,94424.59
2022-08-20T12:00:37.678Z,94427.75
2022-08-20T12:03:09.585Z,94425.38
2022-08-20T12:05:42.996Z,94432.72
2022-08-20T12:08:27.290Z,94430.72
2022-08-20T12:11:01.553Z,94422.53
2022-08-20T12:13:48.424Z,94433.81
2022-08-20T12:16:19.964Z,94430.94
2022-08-20T12:18:47.920Z,94430.44
2022-08-20T12:21:15.237Z,94441.75
2022-08-20T12:23:42.387Z,94440.28
2022-08-20T12:26:09.432Z,94442.78
2022-08-20T12:28:36.951Z,94445.44
2022-08-20T12:31:03.982Z,94455.50
2022-08-20T12:33:31.251Z,94443.59
2022-08-20T12:35:58.317Z,94452.91
2022-08-20T12:38:25.457Z,94454.16
2022-08-20T12:40:52.412Z,94459.16
2022-08-20T12:43:24.237Z,94467.50
2022-08-20T12:45:52.157Z,94460.28
2022-08-20T12:48:21.876Z,94469.28
2022-08-20T12:50:50.316Z,94474.09
2022-08-20T12:53:17.629Z,94459.28
2022-08-20T12:55:45.073Z,94456.13
2022-08-20T12:58:12.108Z,94450.69
2022-08-20T13:00:47.250Z,94444.16
2022-08-20T13:03:17.266Z,94455.44
2022-08-20T13:05:45.487Z,94447.56
2022-08-20T13:08:13.047Z,94438.00
2022-08-20T13:10:44.584Z,94423.56
2022-08-20T13:13:13.393Z,94418.56
2022-08-20T13:15:40.935Z,94405.63
2022-08-20T13:18:08.495Z,94414.28
2022-08-20T13:20:37.105Z,94413.56
2022-08-20T13:23:05.652Z,94409.88
2022-08-20T13:25:33.135Z,94433.44
2022-08-20T13:28:02.435Z,94441.09
2022-08-20T13:30:29.591Z,94454.88
2022-08-20T13:32:56.815Z,94463.81
2022-08-20T13:35:23.997Z,94470.94
2022-08-20T13:37:51.191Z,94459.94
2022-08-20T13:40:18.766Z,94454.59
2022-08-20T13:42:45.932Z,94457.81
2022-08-20T13:45:13.407Z,94478.75
2022-08-20T13:47:42.285Z,94499.47
2022-08-20T13:50:16.379Z,94543.03
2022-08-20T13:52:44.046Z,94548.97
2022-08-20T13:55:14.798Z,94580.75
2022-08-20T13:57:42.392Z,94557.53
2022-08-20T14:00:13.475Z,94585.56
2022-08-20T14:02:42.015Z,94565.59
2022-08-20T14:05:09.883Z,94548.84
2022-08-20T14:07:38.279Z,94558.09
2022-08-20T14:10:13.933Z,94564.09
2022-08-20T14:12:41.231Z,94609.06
2022-08-20T14:15:11.895Z,94630.16
2022-08-20T14:17:42.550Z,94639.06
2022-08-20T14:20:13.150Z,94651.44
2022-08-20T14:22:41.553Z,94640.72
2022-08-20T14:25:11.787Z,94622.41
2022-08-20T14:27:39.458Z,94619.91
2022-08-20T14:30:09.527Z,94644.38
2022-08-20T14:32:36.770Z,94649.81
2022-08-20T14:35:04.447Z,94668.91
2022-08-20T14:37:38.289Z,94671.81
2022-08-20T14:40:09.396Z,94665.84
2022-08-20T14:42:36.864Z,94678.09
2022-08-20T14:45:06.637Z,94709.19
2022-08-20T14:47:36.664Z,94696.41
2022-08-20T14:50:08.851Z,94696.50
2022-08-20T14:52:36.910Z,94671.84
2022-08-20T14:55:10.473Z,94637.66
2022-08-20T14:57:38.693Z,94598.44
2022-08-20T15:00:10.095Z,94538.66
2022-08-20T15:02:37.821Z,94505.41
2022-08-20T15:05:07.179Z,94492.53
2022-08-20T15:07:37.199Z,94506.06
2022-08-20T15:10:10.130Z,94503.13
2022-08-20T15:12:37.138Z,94528.72
2022-08-20T15:15:15.373Z,94520.41
2022-08-20T15:17:58.095Z,94530.91
2022-08-20T15:20:28.258Z,94522.25
2022-08-20T15:22:55.669Z,94543.91
2022-08-20T15:25:25.521Z,94561.97
2022-08-20T15:28:00.714Z,94559.47
2022-08-20T15:30:31.051Z,94531.69
2022-08-20T15:32:58.261Z,94513.88
2022-08-20T15:35:27.401Z,94511.94
2022-08-20T15:37:57.571Z,94500.75
2022-08-20T15:40:28.432Z,94510.69
2022-08-20T15:42:57.843Z,94505.22
2022-08-20T15:45:25.791Z,94501.63
2022-08-20T15:48:15.484Z,94479.59
2022-08-20T15:50:48.218Z,94483.47
2022-08-20T15:53:27.953Z,94479.56
2022-08-20T15:56:21.851Z,94448.88
2022-08-20T15:59:04.032Z,94442.63
2022-08-20T16:01:44.318Z,94422.56
2022-08-20T16:04:26.722Z,94402.25
2022-08-20T16:07:00.645Z,94370.81
2022-08-20T16:09:45.891Z,94381.19
2022-08-20T16:12:19.854Z,94378.31
2022-08-20T16:14:48.243Z,94390.69
2022-08-20T16:17:21.965Z,94397.22
2022-08-20T16:20:02.352Z,94394.13
2022-08-20T16:22:31.682Z,94370.53
2022-08-20T16:24:58.802Z,94350.91
2022-08-20T16:27:31.860Z,94372.28
2022-08-20T16:30:34.836Z,94379.13
2022-08-20T16:33:31.578Z,94396.84
2022-08-20T16:36:15.044Z,94418.22
2022-08-20T16:38:48.405Z,94435.91
2022-08-20T16:41:21.745Z,94440.69
2022-08-20T16:43:56.375Z,94449.84
2022-08-20T16:46:34.026Z,94448.13
2022-08-20T16:49:11.450Z,94451.22
2022-08-20T16:51:43.672Z,94444.53
2022-08-20T16:54:12.891Z,94444.78
2022-08-20T16:56:56.929Z,94456.91
2022-08-20T16:59:27.086Z,94477.69
2022-08-20T17:02:10.909Z,94495.16
2022-08-20T17:04:59.333Z,94509.59
2022-08-20T17:07:42.553Z,94543.91
2022-08-20T17:10:25.272Z,94554.09
2022-08-20T17:13:01.024Z,94559.03
2022-08-20T17:15:31.318Z,94556.50
2022-08-20T17:17:58.553Z,94552.69
2022-08-20T17:20:29.024Z,94550.28
2022-08-20T17:23:11.176Z,94547.09
2022-08-20T17:25:38.646Z,94565.34
2022-08-20T17:28:20.700Z,94591.13
2022-08-20T17:30:48.181Z,94637.13
2022-08-20T17:33:27.090Z,94658.16
2022-08-20T17:36:04.968Z,94671.47
2022-08-20T17:38:40.080Z,94665.75
2022-08-20T17:41:17.592Z,94681.19
2022-08-20T17:43:45.093Z,94689.44
2022-08-20T17:46:19.288Z,94705.69
2022-08-20T17:48:48.289Z,94707.63
2022-08-20T17:51:21.625Z,94714.25
2022-08-20T17:53:57.065Z,94725.34
2022-08-20T17:56:32.694Z,94741.25
2022-08-20T17:59:07.454Z,94761.84
2022-08-20T18:01:37.796Z,94763.44
2022-08-20T18:04:05.012Z,94765.50
2022-08-20T18:06:58.174Z,94769.38
2022-08-20T18:09:38.555Z,94785.38
2022-08-20T18:12:34.130Z,94801.50
2022-08-20T18:15:24.461Z,94810.09
2022-08-20T18:18:00.796Z,94806.16
2022-08-20T18:20:49.569Z,94805.84
2022-08-20T18:23:16.397Z,94811.31
2022-08-20T18:25:53.294Z,94815.13
2022-08-20T18:28:35.177Z,94828.25
2022-08-20T18:31:09.137Z,94816.56
2022-08-20T18:33:37.998Z,94830.31
2022-08-20T18:36:19.703Z,94831.56
2022-08-20T18:39:23.705Z,94839.84
2022-08-20T18:42:05.682Z,94818.50
2022-08-20T18:44:39.504Z,94833.59
2022-08-20T18:47:19.807Z,94833.91
2022-08-20T18:49:47.472Z,94833.16
2022-08-20T18:52:27.640Z,94834.59
2022-08-20T18:54:57.532Z,94816.91
2022-08-20T18:57:27.283Z,94814.09
2022-08-20T19:00:13.365Z,94810.50
2022-08-20T19:02:57.860Z,94793.84
2022-08-20T19:05:40.506Z,94797.09
2022-08-20T19:08:08.103Z,94804.75
2022-08-20T19:10:37.954Z,94806.19
2022-08-20T19:13:33.456Z,94809.47
2022-08-20T19:16:08.990Z,94815.53
2022-08-20T19:18:53.261Z,94815.16
2022-08-20T19:21:26.133Z,94820.00
2022-08-20T19:23:58.105Z,94809.94
2022-08-20T19:26:29.285Z,94808.34
2022-08-20T19:29:02.094Z,94796.50
2022-08-20T19:31:32.865Z,94780.78
2022-08-20T19:34:19.993Z,94775.16
2022-08-20T19:37:35.519Z,94767.53
2022-08-20T19:39:58.614Z,94747.22
2022-08-20T19:42:32.072Z,94754.47
2022-08-20T19:45:06.214Z,94770.97
2022-08-20T19:47:37.807Z,94797.56
2022-08-20T19:50:23.951Z,94812.91
2022-08-20T19:53:06.912Z,94788.69
2022-08-20T19:55:37.281Z,94781.22
2022-08-20T19:58:18.809Z,94789.69
2022-08-20T20:00:55.498Z,94783.47
2022-08-20T20:03:28.659Z,94771.38
2022-08-20T20:06:15.168Z,94764.34
2022-08-20T20:08:55.769Z,94770.97
2022-08-20T20:11:30.539Z,94755.25
2022-08-20T20:14:04.349Z,94757.47
2022-08-20T20:16:32.583Z,94758.91
2022-08-20T20:19:24.692Z,94746.59
2022-08-20T20:21:49.852Z,94749.19
2022-08-20T20:24:29.737Z,94747.00
2022-08-20T20:26:59.457Z,94757.22
2022-08-20T20:29:33.674Z,94750.31
2022-08-20T20:32:11.971Z,94752.56
2022-08-20T20:34:55.486Z,94759.41
2022-08-20T20:37:50.906Z,94774.53
2022-08-20T20:40:26.332Z,94766.09
2022-08-20T20:43:22.139Z,94766.50
2022-08-20T20:45:59.399Z,94750.22
2022-08-20T20:48:33.810Z,94743.97
2022-08-20T20:51:12.240Z,94725.44
2022-08-20T20:53:49.561Z,94709.94
2022-08-20T20:56:32.201Z,94695.03
2022-08-20T20:59:03.983Z,94686.00
2022-08-20T21:01:48.658Z,94679.75
2022-08-20T21:04:22.641Z,94679.97
2022-08-20T21:06:52.302Z,94664.25
2022-08-20T21:09:20.491Z,94655.81
2022-08-20T21:11:47.942Z,94655.38
2022-08-20T21:14:16.254Z,94634.66
2022-08-20T21:16:44.145Z,94618.56
2022-08-20T21:19:12.272Z,94618.56
2022-08-20T21:21:40.045Z,94628.41
2022-08-20T21:24:07.371Z,94607.69
2022-08-20T21:26:34.993Z,94596.19
2022-08-20T21:29:02.130Z,94586.91
2022-08-20T21:31:36.247Z,94586.06
2022-08-20T21:34:03.448Z,94585.59
2022-08-20T21:36:30.476Z,94574.34
2022-08-20T21:38:57.442Z,94578.13
2022-08-20T21:41:29.559Z,94568.28
2022-08-20T21:43:58.974Z,94569.31
2022-08-20T21:46:28.896Z,94576.75
2022-08-20T21:48:56.647Z,94574.94
2022-08-20T21:51:23.803Z,94567.88
2022-08-20T21:53:50.720Z,94568.09
2022-08-20T21:56:18.392Z,94567.94
2022-08-20T21:58:47.346Z,94568.75
2022-08-20T22:01:15.214Z,94570.56
2022-08-20T22:03:43.030Z,94587.50
2022-08-20T22:06:12.503Z,94600.16
2022-08-20T22:08:39.825Z,94588.00
2022-08-20T22:11:09.038Z,94586.84
2022-08-20T22:13:36.557Z,94593.25
2022-08-20T22:16:07.558Z,94594.47
2022-08-20T22:18:35.076Z,94594.06
2022-08-20T22:21:03.304Z,94595.59
2022-08-20T22:23:30.365Z,94593.19
2022-08-20T22:25:57.322Z,94601.94
2022-08-20T22:28:24.455Z,94599.31
2022-08-20T22:30:51.470Z,94593.94
2022-08-20T22:33:23.390Z,94596.69
2022-08-20T22:35:54.729Z,94596.69
2022-08-20T22:38:22.995Z,94589.28
2022-08-20T22:40:50.078Z,94592.91
2022-08-20T22:43:17.086Z,94599.59
2022-08-20T22:45:47.389Z,94594.38
2022-08-20T22:48:17.013Z,94589.13
2022-08-20T22:50:45.167Z,94582.88
2022-08-20T22:53:13.901Z,94586.66
2022-08-20T22:55:40.859Z,94589.84
2022-08-20T22:58:08.648Z,94586.81
2022-08-20T23:00:38.762Z,94585.16
2022-08-20T23:03:07.229Z,94588.56
2022-08-20T23:05:37.440Z,94588.13
2022-08-20T23:08:06.949Z,94586.31
2022-08-20T23:10:36.164Z,94565.59
2022-08-20T23:13:03.170Z,94564.41
2022-08-20T23:15:33.050Z,94561.16
2022-08-20T23:18:08.104Z,94561.06
2022-08-20T23:20:35.758Z,94557.84
2022-08-20T23:23:02.995Z,94568.31
2022-08-20T23:25:30.230Z,94567.53
2022-08-20T23:28:04.197Z,94572.63
2022-08-20T23:30:31.466Z,94561.63
2022-08-20T23:33:01.555Z,94546.72
2022-08-20T23:35:32.906Z,94557.34
2022-08-20T23:38:00.677Z,94553.72
2022-08-20T23:40:29.386Z,94552.34
2022-08-20T23:42:57.669Z,94547.84
2022-08-20T23:45:25.839Z,94549.06
2022-08-20T23:47:53.286Z,94556.13
2022-08-20T23:50:24.747Z,94559.97
2022-08-20T23:52:52.616Z,94554.38
2022-08-20T23:55:20.462Z,94544.75
2022-08-20T23:57:47.416Z,94544.03
